sensor_id;sensor_type;location;lat;lon;timestamp;pressure;altitude;pressure_sealevel;temperature;humidity
62634;BME280;48704;50.534;6.442;2024-02-15T00:01:04;95744.53;;;8.43;100.00
62634;BME280;48704;50.534;6.442;2024-02-15T00:03:30;95737.75;;;8.44;100.00
62634;BME280;48704;50.534;6.442;2024-02-15T00:05:57;95742.41;;;8.47;100.00
62634;BME280;48704;50.534;6.442;2024-02-15T00:08:22;95745.47;;;8.49;100.00
62634;BME280;48704;50.534;6.442;2024-02-15T00:10:49;95739.00;;;8.52;100.00
62634;BME280;48704;50.534;6.442;2024-02-15T00:13:15;95737.78;;;8.53;100.00
62634;BME280;48704;50.534;6.442;2024-02-15T00:15:41;95737.28;;;8.55;100.00
62634;BME280;48704;50.534;6.442;2024-02-15T00:18:06;95730.22;;;8.54;100.00
62634;BME280;48704;50.534;6.442;2024-02-15T00:20:32;95730.03;;;8.57;100.00
62634;BME280;48704;50.534;6.442;2024-02-15T00:22:59;95737.47;;;8.60;100.00
62634;BME280;48704;50.534;6.442;2024-02-15T00:25:25;95740.53;;;8.62;100.00
62634;BME280;48704;50.534;6.442;2024-02-15T00:27:51;95735.44;;;8.61;100.00
62634;BME280;48704;50.534;6.442;2024-02-15T00:30:16;95736.84;;;8.65;100.00
62634;BME280;48704;50.534;6.442;2024-02-15T00:32:41;95732.22;;;8.62;100.00
62634;BME280;48704;50.534;6.442;2024-02-15T00:35:07;95733.16;;;8.68;100.00
62634;BME280;48704;50.534;6.442;2024-02-15T00:37:34;95723.91;;;8.71;100.00
62634;BME280;48704;50.534;6.442;2024-02-15T00:39:59;95729.75;;;8.74;100.00
62634;BME280;48704;50.534;6.442;2024-02-15T00:42:25;95732.84;;;8.76;100.00
62634;BME280;48704;50.534;6.442;2024-02-15T00:44:51;95735.63;;;8.76;100.00
62634;BME280;48704;50.534;6.442;2024-02-15T00:47:16;95737.16;;;8.77;100.00
62634;BME280;48704;50.534;6.442;2024-02-15T00:49:46;95737.47;;;8.79;100.00
62634;BME280;48704;50.534;6.442;2024-02-15T00:52:11;95737.16;;;8.77;100.00
62634;BME280;48704;50.534;6.442;2024-02-15T00:54:36;95749.22;;;8.74;100.00
62634;BME280;48704;50.534;6.442;2024-02-15T00:57:02;95745.34;;;8.71;100.00
62634;BME280;48704;50.534;6.442;2024-02-15T00:59:27;95756.31;;;8.75;100.00
62634;BME280;48704;50.534;6.442;2024-02-15T01:01:52;95740.88;;;8.74;100.00
62634;BME280;48704;50.534;6.442;2024-02-15T01:04:18;95738.88;;;8.74;100.00
62634;BME280;48704;50.534;6.442;2024-02-15T01:06:44;95742.41;;;8.75;100.00
62634;BME280;48704;50.534;6.442;2024-02-15T01:09:10;95750.75;;;8.75;100.00
62634;BME280;48704;50.534;6.442;2024-02-15T01:11:36;95733.63;;;8.76;100.00
62634;BME280;48704;50.534;6.442;2024-02-15T01:14:02;95739.63;;;8.75;100.00
62634;BME280;48704;50.534;6.442;2024-02-15T01:16:28;95740.41;;;8.75;100.00
62634;BME280;48704;50.534;6.442;2024-02-15T01:18:53;95734.84;;;8.75;100.00
62634;BME280;48704;50.534;6.442;2024-02-15T01:21:19;95732.84;;;8.76;100.00
62634;BME280;48704;50.534;6.442;2024-02-15T01:23:44;95731.63;;;8.77;100.00
62634;BME280;48704;50.534;6.442;2024-02-15T01:26:12;95734.72;;;8.79;100.00
62634;BME280;48704;50.534;6.442;2024-02-15T01:28:39;95727.59;;;8.78;100.00
62634;BME280;48704;50.534;6.442;2024-02-15T01:31:05;95726.97;;;8.74;100.00
62634;BME280;48704;50.534;6.442;2024-02-15T01:33:31;95725.44;;;8.73;100.00
62634;BME280;48704;50.534;6.442;2024-02-15T01:35:57;95736.53;;;8.73;100.00
62634;BME280;48704;50.534;6.442;2024-02-15T01:38:22;95731.91;;;8.69;100.00
62634;BME280;48704;50.534;6.442;2024-02-15T01:40:47;95723.59;;;8.69;100.00
62634;BME280;48704;50.534;6.442;2024-02-15T01:43:14;95730.06;;;8.66;100.00
62634;BME280;48704;50.534;6.442;2024-02-15T01:45:39;95724.97;;;8.65;100.00
62634;BME280;48704;50.534;6.442;2024-02-15T01:48:05;95723.56;;;8.60;100.00
62634;BME280;48704;50.534;6.442;2024-02-15T01:50:32;95719.41;;;8.65;100.00
62634;BME280;48704;50.534;6.442;2024-02-15T01:53:00;95726.50;;;8.66;100.00
62634;BME280;48704;50.534;6.442;2024-02-15T01:55:26;95721.72;;;8.66;100.00
62634;BME280;48704;50.534;6.442;2024-02-15T01:57:52;95724.66;;;8.63;100.00
62634;BME280;48704;50.534;6.442;2024-02-15T02:00:18;95730.66;;;8.61;100.00
62634;BME280;48704;50.534;6.442;2024-02-15T02:02:44;95722.03;;;8.59;100.00
62634;BME280;48704;50.534;6.442;2024-02-15T02:05:10;95712.59;;;8.57;100.00
62634;BME280;48704;50.534;6.442;2024-02-15T02:07:37;95715.84;;;8.55;100.00
62634;BME280;48704;50.534;6.442;2024-02-15T02:10:03;95701.69;;;8.53;100.00
62634;BME280;48704;50.534;6.442;2024-02-15T02:12:28;95697.34;;;8.52;100.00
62634;BME280;48704;50.534;6.442;2024-02-15T02:14:54;95704.13;;;8.51;100.00
62634;BME280;48704;50.534;6.442;2024-02-15T02:17:19;95702.59;;;8.50;100.00
62634;BME280;48704;50.534;6.442;2024-02-15T02:19:45;95705.03;;;8.57;100.00
62634;BME280;48704;50.534;6.442;2024-02-15T02:22:11;95693.63;;;8.55;100.00
62634;BME280;48704;50.534;6.442;2024-02-15T02:27:28;95706.59;;;8.49;100.00
62634;BME280;48704;50.534;6.442;2024-02-15T02:29:54;95703.81;;;8.49;100.00
62634;BME280;48704;50.534;6.442;2024-02-15T02:32:19;95694.72;;;8.49;100.00
62634;BME280;48704;50.534;6.442;2024-02-15T02:34:45;95688.41;;;8.48;100.00
62634;BME280;48704;50.534;6.442;2024-02-15T02:37:10;95698.59;;;8.51;100.00
62634;BME280;48704;50.534;6.442;2024-02-15T02:39:38;95689.03;;;8.52;100.00
62634;BME280;48704;50.534;6.442;2024-02-15T02:42:04;95695.34;;;8.53;100.00
62634;BME280;48704;50.534;6.442;2024-02-15T02:44:29;95703.97;;;8.55;100.00
62634;BME280;48704;50.534;6.442;2024-02-15T02:46:54;95692.06;;;8.54;100.00
62634;BME280;48704;50.534;6.442;2024-02-15T02:49:20;95701.69;;;8.53;100.00
62634;BME280;48704;50.534;6.442;2024-02-15T02:51:45;95687.31;;;8.46;100.00
62634;BME280;48704;50.534;6.442;2024-02-15T02:54:10;95699.34;;;8.43;100.00
62634;BME280;48704;50.534;6.442;2024-02-15T02:56:36;95673.56;;;8.42;100.00
62634;BME280;48704;50.534;6.442;2024-02-15T02:59:01;95674.97;;;8.37;100.00
62634;BME280;48704;50.534;6.442;2024-02-15T03:01:26;95667.66;;;8.31;100.00
62634;BME280;48704;50.534;6.442;2024-02-15T03:03:55;95671.56;;;8.33;100.00
62634;BME280;48704;50.534;6.442;2024-02-15T03:06:24;95658.09;;;8.32;100.00
62634;BME280;48704;50.534;6.442;2024-02-15T03:08:50;95663.34;;;8.30;100.00
62634;BME280;48704;50.534;6.442;2024-02-15T03:11:19;95661.50;;;8.27;100.00
62634;BME280;48704;50.534;6.442;2024-02-15T03:13:44;95663.03;;;8.28;100.00
62634;BME280;48704;50.534;6.442;2024-02-15T03:16:10;95655.47;;;8.28;100.00
62634;BME280;48704;50.534;6.442;2024-02-15T03:18:35;95657.94;;;8.26;100.00
62634;BME280;48704;50.534;6.442;2024-02-15T03:21:00;95658.41;;;8.25;100.00
62634;BME280;48704;50.534;6.442;2024-02-15T03:23:25;95655.31;;;8.23;100.00
62634;BME280;48704;50.534;6.442;2024-02-15T03:25:51;95656.22;;;8.20;100.00
62634;BME280;48704;50.534;6.442;2024-02-15T03:28:16;95645.44;;;8.22;100.00
62634;BME280;48704;50.534;6.442;2024-02-15T03:30:42;95642.03;;;8.18;100.00
62634;BME280;48704;50.534;6.442;2024-02-15T03:33:08;95644.22;;;8.23;100.00
62634;BME280;48704;50.534;6.442;2024-02-15T03:35:33;95637.88;;;8.22;100.00
62634;BME280;48704;50.534;6.442;2024-02-15T03:37:59;95638.97;;;8.25;100.00
62634;BME280;48704;50.534;6.442;2024-02-15T03:40:26;95638.81;;;8.19;100.00
62634;BME280;48704;50.534;6.442;2024-02-15T03:42:52;95636.66;;;8.14;100.00
62634;BME280;48704;50.534;6.442;2024-02-15T03:45:18;95642.66;;;8.22;100.00
62634;BME280;48704;50.534;6.442;2024-02-15T03:47:43;95640.53;;;8.17;100.00
62634;BME280;48704;50.534;6.442;2024-02-15T03:50:09;95638.81;;;8.19;100.00
62634;BME280;48704;50.534;6.442;2024-02-15T03:52:35;95644.34;;;8.01;100.00
62634;BME280;48704;50.534;6.442;2024-02-15T03:55:01;95647.13;;;8.10;100.00
62634;BME280;48704;50.534;6.442;2024-02-15T03:57:27;95644.53;;;8.16;100.00
62634;BME280;48704;50.534;6.442;2024-02-15T03:59:53;95635.59;;;8.12;100.00
62634;BME280;48704;50.534;6.442;2024-02-15T04:02:20;95643.84;;;7.93;100.00
62634;BME280;48704;50.534;6.442;2024-02-15T04:04:45;95640.78;;;7.91;100.00
62634;BME280;48704;50.534;6.442;2024-02-15T04:07:16;95636.13;;;7.88;100.00
62634;BME280;48704;50.534;6.442;2024-02-15T04:09:50;95644.59;;;7.85;100.00
62634;BME280;48704;50.534;6.442;2024-02-15T04:12:15;95648.94;;;7.95;100.00
62634;BME280;48704;50.534;6.442;2024-02-15T04:14:43;95649.72;;;7.95;100.00
62634;BME280;48704;50.534;6.442;2024-02-15T04:17:10;95655.16;;;8.08;100.00
62634;BME280;48704;50.534;6.442;2024-02-15T04:19:35;95661.13;;;7.97;100.00
62634;BME280;48704;50.534;6.442;2024-02-15T04:22:02;95662.03;;;7.85;100.00
62634;BME280;48704;50.534;6.442;2024-02-15T04:24:32;95664.81;;;7.94;100.00
62634;BME280;48704;50.534;6.442;2024-02-15T04:26:58;95666.97;;;7.90;100.00
62634;BME280;48704;50.534;6.442;2024-02-15T04:29:24;95658.03;;;7.95;100.00
62634;BME280;48704;50.534;6.442;2024-02-15T04:31:49;95659.41;;;7.91;100.00
62634;BME280;48704;50.534;6.442;2024-02-15T04:34:15;95656.53;;;8.03;100.00
62634;BME280;48704;50.534;6.442;2024-02-15T04:36:41;95653.75;;;8.03;100.00
62634;BME280;48704;50.534;6.442;2024-02-15T04:39:07;95658.34;;;7.88;100.00
62634;BME280;48704;50.534;6.442;2024-02-15T04:41:35;95660.16;;;7.73;100.00
62634;BME280;48704;50.534;6.442;2024-02-15T04:44:00;95664.94;;;7.82;100.00
62634;BME280;48704;50.534;6.442;2024-02-15T04:46:26;95650.34;;;7.99;100.00
62634;BME280;48704;50.534;6.442;2024-02-15T04:48:51;95658.19;;;7.92;100.00
62634;BME280;48704;50.534;6.442;2024-02-15T04:51:17;95644.16;;;7.77;100.00
62634;BME280;48704;50.534;6.442;2024-02-15T04:53:46;95652.00;;;7.88;100.00
62634;BME280;48704;50.534;6.442;2024-02-15T04:56:12;95646.75;;;7.81;100.00
62634;BME280;48704;50.534;6.442;2024-02-15T04:58:41;95632.63;;;7.97;100.00
62634;BME280;48704;50.534;6.442;2024-02-15T05:01:19;95634.88;;;7.80;100.00
62634;BME280;48704;50.534;6.442;2024-02-15T05:03:45;95627.50;;;7.77;100.00
62634;BME280;48704;50.534;6.442;2024-02-15T05:06:10;95630.88;;;7.81;100.00
62634;BME280;48704;50.534;6.442;2024-02-15T05:08:38;95627.66;;;7.83;100.00
62634;BME280;48704;50.534;6.442;2024-02-15T05:11:10;95631.84;;;7.96;100.00
62634;BME280;48704;50.534;6.442;2024-02-15T05:13:46;95625.38;;;7.99;100.00
62634;BME280;48704;50.534;6.442;2024-02-15T05:16:12;95632.00;;;8.02;100.00
62634;BME280;48704;50.534;6.442;2024-02-15T05:18:37;95626.28;;;7.78;100.00
62634;BME280;48704;50.534;6.442;2024-02-15T05:21:05;95625.31;;;7.72;100.00
62634;BME280;48704;50.534;6.442;2024-02-15T05:23:34;95639.34;;;7.68;100.00
62634;BME280;48704;50.534;6.442;2024-02-15T05:26:00;95633.38;;;7.97;100.00
62634;BME280;48704;50.534;6.442;2024-02-15T05:28:25;95629.09;;;8.05;100.00
62634;BME280;48704;50.534;6.442;2024-02-15T05:31:11;95628.81;;;8.13;100.00
62634;BME280;48704;50.534;6.442;2024-02-15T05:33:37;95626.16;;;8.18;100.00
62634;BME280;48704;50.534;6.442;2024-02-15T05:36:08;95626.00;;;8.22;100.00
62634;BME280;48704;50.534;6.442;2024-02-15T05:38:34;95615.22;;;8.24;100.00
62634;BME280;48704;50.534;6.442;2024-02-15T05:40:59;95611.53;;;8.27;100.00
62634;BME280;48704;50.534;6.442;2024-02-15T05:43:25;95608.13;;;8.23;100.00
62634;BME280;48704;50.534;6.442;2024-02-15T05:45:50;95610.28;;;8.19;100.00
62634;BME280;48704;50.534;6.442;2024-02-15T05:48:17;95603.81;;;8.22;100.00
62634;BME280;48704;50.534;6.442;2024-02-15T05:50:42;95606.59;;;8.22;100.00
62634;BME280;48704;50.534;6.442;2024-02-15T05:53:08;95596.41;;;8.28;100.00
62634;BME280;48704;50.534;6.442;2024-02-15T05:55:33;95598.25;;;8.22;100.00
62634;BME280;48704;50.534;6.442;2024-02-15T05:58:02;95594.88;;;8.27;100.00
62634;BME280;48704;50.534;6.442;2024-02-15T06:00:27;95591.16;;;8.21;100.00
62634;BME280;48704;50.534;6.442;2024-02-15T06:02:55;95595.19;;;8.29;100.00
62634;BME280;48704;50.534;6.442;2024-02-15T06:05:20;95597.94;;;8.29;100.00
62634;BME280;48704;50.534;6.442;2024-02-15T06:07:46;95596.09;;;8.26;100.00
62634;BME280;48704;50.534;6.442;2024-02-15T06:10:11;95597.31;;;8.25;100.00
62634;BME280;48704;50.534;6.442;2024-02-15T06:12:37;95587.78;;;8.26;100.00
62634;BME280;48704;50.534;6.442;2024-02-15T06:15:04;95590.84;;;8.28;100.00
62634;BME280;48704;50.534;6.442;2024-02-15T06:17:30;95598.44;;;8.36;100.00
62634;BME280;48704;50.534;6.442;2024-02-15T06:19:57;95600.16;;;8.34;100.00
62634;BME280;48704;50.534;6.442;2024-02-15T06:22:22;95597.47;;;8.21;100.00
62634;BME280;48704;50.534;6.442;2024-02-15T06:24:47;95596.25;;;8.31;100.00
62634;BME280;48704;50.534;6.442;2024-02-15T06:27:13;95593.63;;;8.28;100.00
62634;BME280;48704;50.534;6.442;2024-02-15T06:29:40;95597.81;;;8.32;100.00
62634;BME280;48704;50.534;6.442;2024-02-15T06:32:24;95596.13;;;8.35;100.00
62634;BME280;48704;50.534;6.442;2024-02-15T06:35:09;95590.59;;;8.35;100.00
62634;BME280;48704;50.534;6.442;2024-02-15T06:37:52;95597.81;;;8.32;100.00
62634;BME280;48704;50.534;6.442;2024-02-15T06:40:36;95604.78;;;8.37;100.00
62634;BME280;48704;50.534;6.442;2024-02-15T06:43:02;95606.28;;;8.29;100.00
62634;BME280;48704;50.534;6.442;2024-02-15T06:45:28;95596.91;;;8.35;100.00
62634;BME280;48704;50.534;6.442;2024-02-15T06:47:57;95601.53;;;8.38;100.00
62634;BME280;48704;50.534;6.442;2024-02-15T06:50:23;95602.47;;;8.35;100.00
62634;BME280;48704;50.534;6.442;2024-02-15T06:52:48;95605.69;;;8.43;100.00
62634;BME280;48704;50.534;6.442;2024-02-15T06:55:14;95613.09;;;8.46;100.00
62634;BME280;48704;50.534;6.442;2024-02-15T06:57:40;95610.19;;;8.41;100.00
62634;BME280;48704;50.534;6.442;2024-02-15T07:00:09;95614.03;;;8.43;100.00
62634;BME280;48704;50.534;6.442;2024-02-15T07:02:39;95609.09;;;8.38;100.00
62634;BME280;48704;50.534;6.442;2024-02-15T07:05:05;95609.72;;;8.33;100.00
62634;BME280;48704;50.534;6.442;2024-02-15T07:07:31;95615.56;;;8.44;100.00
62634;BME280;48704;50.534;6.442;2024-02-15T07:09:57;95618.66;;;8.46;100.00
62634;BME280;48704;50.534;6.442;2024-02-15T07:12:22;95610.34;;;8.46;100.00
62634;BME280;48704;50.534;6.442;2024-02-15T07:14:48;95630.69;;;8.43;100.00
62634;BME280;48704;50.534;6.442;2024-02-15T07:17:13;95622.66;;;8.45;100.00
62634;BME280;48704;50.534;6.442;2024-02-15T07:19:44;95618.66;;;8.46;100.00
62634;BME280;48704;50.534;6.442;2024-02-15T07:22:10;95605.56;;;8.47;100.00
62634;BME280;48704;50.534;6.442;2024-02-15T07:24:36;95613.41;;;8.48;100.00
62634;BME280;48704;50.534;6.442;2024-02-15T07:27:05;95608.47;;;8.43;100.00
62634;BME280;48704;50.534;6.442;2024-02-15T07:29:30;95610.78;;;8.54;100.00
62634;BME280;48704;50.534;6.442;2024-02-15T07:31:58;95605.53;;;8.56;100.00
62634;BME280;48704;50.534;6.442;2024-02-15T07:34:24;95609.06;;;8.56;100.00
62634;BME280;48704;50.534;6.442;2024-02-15T07:36:51;95607.25;;;8.53;100.00
62634;BME280;48704;50.534;6.442;2024-02-15T07:39:16;95620.34;;;8.62;100.00
62634;BME280;48704;50.534;6.442;2024-02-15T07:41:48;95606.44;;;8.62;100.00
62634;BME280;48704;50.534;6.442;2024-02-15T07:44:14;95608.44;;;8.61;100.00
62634;BME280;48704;50.534;6.442;2024-02-15T07:46:39;95611.38;;;8.67;100.00
62634;BME280;48704;50.534;6.442;2024-02-15T07:49:05;95608.16;;;8.68;100.00
62634;BME280;48704;50.534;6.442;2024-02-15T07:51:31;95619.25;;;8.68;100.00
62634;BME280;48704;50.534;6.442;2024-02-15T07:53:57;95610.91;;;8.78;100.00
62634;BME280;48704;50.534;6.442;2024-02-15T07:56:22;95618.78;;;8.79;100.00
62634;BME280;48704;50.534;6.442;2024-02-15T07:58:48;95618.78;;;8.79;100.00
62634;BME280;48704;50.534;6.442;2024-02-15T08:01:15;95609.06;;;8.84;100.00
62634;BME280;48704;50.534;6.442;2024-02-15T08:03:41;95607.50;;;8.83;100.00
62634;BME280;48704;50.534;6.442;2024-02-15T08:06:14;95606.59;;;8.86;100.00
62634;BME280;48704;50.534;6.442;2024-02-15T08:08:41;95621.38;;;8.92;100.00
62634;BME280;48704;50.534;6.442;2024-02-15T08:11:08;95615.50;;;8.99;100.00
62634;BME280;48704;50.534;6.442;2024-02-15T08:13:49;95610.84;;;9.05;100.00
62634;BME280;48704;50.534;6.442;2024-02-15T08:16:19;95609.44;;;9.10;100.00
62634;BME280;48704;50.534;6.442;2024-02-15T08:18:45;95619.78;;;9.18;100.00
62634;BME280;48704;50.534;6.442;2024-02-15T08:21:11;95612.03;;;9.22;100.00
62634;BME280;48704;50.534;6.442;2024-02-15T08:23:37;95614.34;;;9.24;100.00
62634;BME280;48704;50.534;6.442;2024-02-15T08:26:03;95616.47;;;9.29;100.00
62634;BME280;48704;50.534;6.442;2024-02-15T08:28:28;95613.53;;;9.32;100.00
62634;BME280;48704;50.534;6.442;2024-02-15T08:30:54;95615.97;;;9.39;100.00
62634;BME280;48704;50.534;6.442;2024-02-15T08:33:21;95630.81;;;9.46;100.00
62634;BME280;48704;50.534;6.442;2024-02-15T08:35:46;95622.75;;;9.48;100.00
62634;BME280;48704;50.534;6.442;2024-02-15T08:38:12;95633.56;;;9.55;100.00
62634;BME280;48704;50.534;6.442;2024-02-15T08:40:37;95625.81;;;9.59;100.00
62634;BME280;48704;50.534;6.442;2024-02-15T08:43:02;95611.72;;;9.62;100.00
62634;BME280;48704;50.534;6.442;2024-02-15T08:45:28;95614.03;;;9.64;100.00
62634;BME280;48704;50.534;6.442;2024-02-15T08:47:53;95607.63;;;9.72;100.00
62634;BME280;48704;50.534;6.442;2024-02-15T08:50:18;95617.63;;;9.88;100.00
62634;BME280;48704;50.534;6.442;2024-02-15T08:52:45;95605.47;;;9.77;100.00
62634;BME280;48704;50.534;6.442;2024-02-15T08:55:12;95607.44;;;9.85;100.00
62634;BME280;48704;50.534;6.442;2024-02-15T08:57:40;95619.16;;;9.89;100.00
62634;BME280;48704;50.534;6.442;2024-02-15T09:00:07;95601.50;;;9.92;100.00
62634;BME280;48704;50.534;6.442;2024-02-15T09:02:48;95607.31;;;10.03;100.00
62634;BME280;48704;50.534;6.442;2024-02-15T09:05:18;95600.59;;;10.10;100.00
62634;BME280;48704;50.534;6.442;2024-02-15T09:07:44;95610.97;;;10.10;100.00
62634;BME280;48704;50.534;6.442;2024-02-15T09:10:13;95597.19;;;10.15;100.00
62634;BME280;48704;50.534;6.442;2024-02-15T09:12:39;95602.63;;;10.10;100.00
62634;BME280;48704;50.534;6.442;2024-02-15T09:15:09;95610.03;;;10.13;100.00
62634;BME280;48704;50.534;6.442;2024-02-15T09:17:36;95602.75;;;10.15;100.00
62634;BME280;48704;50.534;6.442;2024-02-15T09:20:11;95601.03;;;10.18;100.00
62634;BME280;48704;50.534;6.442;2024-02-15T09:22:57;95588.97;;;10.21;100.00
62634;BME280;48704;50.534;6.442;2024-02-15T09:25:23;95598.22;;;10.27;100.00
62634;BME280;48704;50.534;6.442;2024-02-15T09:27:49;95596.78;;;10.31;100.00
62634;BME280;48704;50.534;6.442;2024-02-15T09:30:15;95598.16;;;10.36;100.00
62634;BME280;48704;50.534;6.442;2024-02-15T09:32:42;95599.97;;;10.39;100.00
62634;BME280;48704;50.534;6.442;2024-02-15T09:35:12;95595.38;;;10.51;100.00
62634;BME280;48704;50.534;6.442;2024-02-15T09:37:45;95599.09;;;10.71;100.00
62634;BME280;48704;50.534;6.442;2024-02-15T09:40:12;95595.63;;;10.77;100.00
62634;BME280;48704;50.534;6.442;2024-02-15T09:42:42;95589.69;;;11.13;100.00
62634;BME280;48704;50.534;6.442;2024-02-15T09:45:11;95598.22;;;11.24;100.00
62634;BME280;48704;50.534;6.442;2024-02-15T09:47:38;95594.69;;;11.09;100.00
62634;BME280;48704;50.534;6.442;2024-02-15T09:50:07;95590.63;;;11.10;100.00
62634;BME280;48704;50.534;6.442;2024-02-15T09:52:33;95591.47;;;11.16;100.00
62634;BME280;48704;50.534;6.442;2024-02-15T09:55:02;95592.09;;;11.05;100.00
62634;BME280;48704;50.534;6.442;2024-02-15T09:57:29;95593.44;;;11.10;100.00
62634;BME280;48704;50.534;6.442;2024-02-15T09:59:54;95590.53;;;11.04;100.00
62634;BME280;48704;50.534;6.442;2024-02-15T10:02:20;95583.91;;;11.02;100.00
62634;BME280;48704;50.534;6.442;2024-02-15T10:04:46;95594.28;;;11.01;100.00
62634;BME280;48704;50.534;6.442;2024-02-15T10:07:13;95577.94;;;11.09;100.00
62634;BME280;48704;50.534;6.442;2024-02-15T10:09:39;95579.28;;;10.99;100.00
62634;BME280;48704;50.534;6.442;2024-02-15T10:12:08;95583.13;;;11.16;100.00
62634;BME280;48704;50.534;6.442;2024-02-15T10:14:35;95585.81;;;10.96;100.00
62634;BME280;48704;50.534;6.442;2024-02-15T10:17:07;95581.03;;;11.11;100.00
62634;BME280;48704;50.534;6.442;2024-02-15T10:19:36;95596.88;;;11.05;100.00
62634;BME280;48704;50.534;6.442;2024-02-15T10:22:10;95594.38;;;11.07;100.00
62634;BME280;48704;50.534;6.442;2024-02-15T10:24:37;95588.34;;;11.09;100.00
62634;BME280;48704;50.534;6.442;2024-02-15T10:27:05;95592.63;;;11.24;100.00
62634;BME280;48704;50.534;6.442;2024-02-15T10:29:32;95592.34;;;11.22;100.00
62634;BME280;48704;50.534;6.442;2024-02-15T10:32:00;95584.47;;;11.35;100.00
62634;BME280;48704;50.534;6.442;2024-02-15T10:34:25;95576.94;;;11.42;100.00
62634;BME280;48704;50.534;6.442;2024-02-15T10:36:53;95591.28;;;11.34;100.00
62634;BME280;48704;50.534;6.442;2024-02-15T10:39:21;95582.41;;;11.51;100.00
62634;BME280;48704;50.534;6.442;2024-02-15T10:41:50;95574.06;;;11.51;100.00
62634;BME280;48704;50.534;6.442;2024-02-15T10:44:20;95583.69;;;11.50;100.00
62634;BME280;48704;50.534;6.442;2024-02-15T10:46:47;95570.72;;;11.67;100.00
62634;BME280;48704;50.534;6.442;2024-02-15T10:51:50;95578.03;;;11.79;100.00
62634;BME280;48704;50.534;6.442;2024-02-15T10:54:22;95571.00;;;11.69;100.00
62634;BME280;48704;50.534;6.442;2024-02-15T10:56:53;95570.50;;;11.85;100.00
62634;BME280;48704;50.534;6.442;2024-02-15T10:59:23;95574.56;;;11.84;100.00
62634;BME280;48704;50.534;6.442;2024-02-15T11:01:54;95569.75;;;11.70;100.00
62634;BME280;48704;50.534;6.442;2024-02-15T11:04:25;95567.63;;;11.80;100.00
62634;BME280;48704;50.534;6.442;2024-02-15T11:06:57;95570.31;;;11.74;100.00
62634;BME280;48704;50.534;6.442;2024-02-15T11:09:23;95567.44;;;11.83;100.00
62634;BME280;48704;50.534;6.442;2024-02-15T11:11:50;95559.75;;;11.78;100.00
62634;BME280;48704;50.534;6.442;2024-02-15T11:14:26;95555.84;;;11.90;100.00
62634;BME280;48704;50.534;6.442;2024-02-15T11:16:52;95555.84;;;11.90;100.00
62634;BME280;48704;50.534;6.442;2024-02-15T11:22:01;95552.59;;;12.12;100.00
62634;BME280;48704;50.534;6.442;2024-02-15T11:24:32;95549.47;;;12.30;100.00
62634;BME280;48704;50.534;6.442;2024-02-15T11:27:01;95542.56;;;12.46;100.00
62634;BME280;48704;50.534;6.442;2024-02-15T11:32:37;95534.31;;;12.57;100.00
62634;BME280;48704;50.534;6.442;2024-02-15T11:35:08;95534.31;;;12.57;100.00
62634;BME280;48704;50.534;6.442;2024-02-15T11:43:07;95525.94;;;12.37;100.00
62634;BME280;48704;50.534;6.442;2024-02-15T11:45:34;95521.19;;;12.43;100.00
62634;BME280;48704;50.534;6.442;2024-02-15T11:48:11;95514.75;;;12.37;100.00
62634;BME280;48704;50.534;6.442;2024-02-15T11:50:38;95515.88;;;12.45;100.00
62634;BME280;48704;50.534;6.442;2024-02-15T11:53:05;95516.16;;;12.27;100.00
62634;BME280;48704;50.534;6.442;2024-02-15T11:55:34;95514.41;;;12.29;100.00
62634;BME280;48704;50.534;6.442;2024-02-15T11:58:02;95511.41;;;12.33;100.00
62634;BME280;48704;50.534;6.442;2024-02-15T12:00:42;95498.59;;;12.21;100.00
62634;BME280;48704;50.534;6.442;2024-02-15T12:03:26;95499.69;;;12.29;100.00
62634;BME280;48704;50.534;6.442;2024-02-15T12:06:10;95497.06;;;12.20;100.00
62634;BME280;48704;50.534;6.442;2024-02-15T12:08:54;95491.63;;;12.11;100.00
62634;BME280;48704;50.534;6.442;2024-02-15T12:11:39;95488.56;;;12.09;100.00
62634;BME280;48704;50.534;6.442;2024-02-15T12:14:24;95488.41;;;11.97;100.00
62634;BME280;48704;50.534;6.442;2024-02-15T12:17:09;95483.31;;;11.96;100.00
62634;BME280;48704;50.534;6.442;2024-02-15T12:19:55;95476.41;;;11.91;100.00
62634;BME280;48704;50.534;6.442;2024-02-15T12:22:31;95469.84;;;11.94;100.00
62634;BME280;48704;50.534;6.442;2024-02-15T12:25:01;95466.94;;;11.83;100.00
62634;BME280;48704;50.534;6.442;2024-02-15T12:27:31;95472.91;;;11.76;100.00
62634;BME280;48704;50.534;6.442;2024-02-15T12:29:57;95460.78;;;11.79;100.00
62634;BME280;48704;50.534;6.442;2024-02-15T12:32:27;95471.22;;;11.64;100.00
62634;BME280;48704;50.534;6.442;2024-02-15T12:34:53;95460.75;;;11.59;100.00
62634;BME280;48704;50.534;6.442;2024-02-15T12:37:34;95455.84;;;11.54;100.00
62634;BME280;48704;50.534;6.442;2024-02-15T12:40:10;95460.34;;;11.46;100.00
62634;BME280;48704;50.534;6.442;2024-02-15T12:42:39;95456.25;;;11.26;100.00
62634;BME280;48704;50.534;6.442;2024-02-15T12:45:04;95447.88;;;11.26;100.00
62634;BME280;48704;50.534;6.442;2024-02-15T12:47:31;95450.38;;;11.24;100.00
62634;BME280;48704;50.534;6.442;2024-02-15T12:49:56;95440.00;;;11.25;100.00
62634;BME280;48704;50.534;6.442;2024-02-15T12:52:37;95434.41;;;11.25;100.00
62634;BME280;48704;50.534;6.442;2024-02-15T12:55:11;95433.28;;;11.17;100.00
62634;BME280;48704;50.534;6.442;2024-02-15T12:57:37;95435.59;;;11.18;100.00
62634;BME280;48704;50.534;6.442;2024-02-15T13:00:06;95418.09;;;11.18;100.00
62634;BME280;48704;50.534;6.442;2024-02-15T13:02:38;95423.47;;;11.21;100.00
62634;BME280;48704;50.534;6.442;2024-02-15T13:05:07;95420.59;;;11.16;100.00
62634;BME280;48704;50.534;6.442;2024-02-15T13:07:37;95408.66;;;11.15;100.00
62634;BME280;48704;50.534;6.442;2024-02-15T13:10:03;95412.72;;;11.14;100.00
62634;BME280;48704;50.534;6.442;2024-02-15T13:12:35;95397.53;;;11.15;100.00
62634;BME280;48704;50.534;6.442;2024-02-15T13:15:02;95399.06;;;11.16;100.00
62634;BME280;48704;50.534;6.442;2024-02-15T13:17:29;95395.56;;;11.21;100.00